Latest Weather Observations for Yarram Airport

IDV60801

Issued at 6:32 am EDT Sunday 22 January 2017 (issued every 30 minutes, with the page automatically refreshed every 10 minutes)

About weather observations | Map of weather stations | Latest weather observations for VIC | Other Formats
Station Details ID: 085151 Name: YARRAM AIRPORT Lat: -38.56 Lon: 146.75 Height: 17.9 m
Data from the previous 72 hours. | See also: Recent months at Yarram Airport
Date/Time
EDT
Temp
°C
App
Temp
°C
Dew
Point
°C
Rel
Hum
%
Delta-T
°C
Wind Press
QNH
hPa
Press
MSL
hPa
Rain since
9am
mm
Dir  Spd
km/h
Gust
km/h
Spd
kts
Gust
kts
22/06:30am 8.1 6.1 7.3 95 0.4 N 7 7 4 4 1016.5 1016.5 0.0
22/06:00am 7.9 6.1 7.1 95 0.4 WNW 6 7 3 4 1016.5 1016.5 0.0
22/05:30am 8.9 7.3 8.1 95 0.4 WSW 6 9 3 5 1016.4 1016.4 0.0
22/05:00am 9.1 8.7 8.3 95 0.4 CALM 0 0 0 0 1016.0 1016.0 0.0
22/04:30am 9.2 8.8 8.3 94 0.4 CALM 0 0 0 0 1015.7 1015.7 0.0
22/04:00am 8.1 7.1 7.2 94 0.4 N 2 7 1 4 1015.6 1015.6 0.0
22/03:30am 8.7 7.8 7.6 93 0.5 N 2 7 1 4 1015.6 1015.6 0.0
22/03:00am 9.2 7.6 8.1 93 0.5 NNW 6 6 3 3 1015.7 1015.7 0.0
22/02:30am 9.7 8.0 8.5 92 0.6 W 7 11 4 6 1015.9 1015.9 0.0
22/02:00am 9.9 8.4 8.5 91 0.7 NNW 6 6 3 3 1016.2 1016.2 0.0
22/01:30am 10.9 9.5 9.5 91 0.7 NW 7 9 4 5 1016.2 1016.2 0.0
22/01:00am 11.1 9.6 9.2 88 0.9 NNW 7 9 4 5 1016.4 1016.4 0.0
22/12:30am 11.4 10.0 9.5 88 1.0 NNW 7 9 4 5 1016.7 1016.7 0.0
22/12:00am 11.8 10.1 9.9 88 1.0 N 9 11 5 6 1016.7 1016.7 0.0
 
Date/Time
EDT
Temp
°C
App
Temp
°C
Dew
Point
°C
Rel
Hum
%
Delta-T
°C
Wind Press
QNH
hPa
Press
MSL
hPa
Rain since
9am
mm
Dir  Spd
km/h
Gust
km/h
Spd
kts
Gust
kts
21/11:30pm 12.6 10.8 10.7 88 1.0 N 11 13 6 7 1016.8 1016.8 0.0
21/11:00pm 12.5 11.0 10.6 88 1.0 NW 9 11 5 6 1016.7 1016.7 0.0
21/10:30pm 12.8 11.2 10.3 85 1.3 WNW 9 11 5 6 1016.9 1016.9 0.0
21/10:00pm 13.6 12.2 10.8 83 1.5 W 9 11 5 6 1016.9 1016.9 0.0
21/09:30pm 14.7 11.9 11.5 81 1.7 WSW 17 19 9 10 1016.7 1016.7 0.0
21/09:00pm 15.5 13.3 10.7 73 2.5 WSW 13 15 7 8 1016.6 1016.6 0.0
21/08:30pm 16.6 14.3 10.5 67 3.2 SW 13 17 7 9 1016.3 1016.3 0.0
21/08:00pm 18.2 14.8 10.6 61 4.1 SW 19 24 10 13 1015.9 1015.9 0.0
21/07:30pm 19.0 15.4 10.6 58 4.5 SW 20 26 11 14 1015.4 1015.4 0.0
21/07:00pm 19.7 15.2 10.1 54 5.1 SSW 24 32 13 17 1015.1 1015.1 0.0
21/06:30pm 20.3 14.8 9.2 49 5.9 SW 28 35 15 19 1014.9 1014.9 0.0
21/06:00pm 20.7 15.9 10.2 51 5.7 SW 26 33 14 18 1014.6 1014.6 0.0
21/05:30pm 21.3 17.2 11.3 53 5.5 SW 24 33 13 18 1014.7 1014.7 0.0
21/05:00pm 21.3 17.0 11.9 55 5.3 SW 26 35 14 19 1014.8 1014.8 0.0
21/04:30pm 21.3 16.6 10.8 51 5.8 SW 26 37 14 20 1014.9 1014.9 0.0
21/04:00pm 21.2 16.2 11.0 52 5.6 WSW 28 39 15 21 1014.9 1014.9 0.0
21/03:30pm 21.3 16.9 11.6 54 5.4 SW 26 41 14 22 1014.9 1014.9 0.0
21/03:00pm 21.5 16.5 10.9 51 5.8 SW 28 37 15 20 1014.9 1014.9 0.0
21/02:30pm 21.2 16.5 10.7 51 5.7 SW 26 39 14 21 1014.9 1014.9 0.0
21/02:00pm 21.2 16.4 11.5 54 5.4 SW 28 50 15 27 1014.9 1014.9 0.0
21/01:57pm 21.2 16.3 11.2 53 5.5 SW 28 50 15 27 1014.8 1014.8 0.0
21/01:30pm 21.7 17.3 11.7 53 5.6 SW 26 41 14 22 1015.0 1015.0 0.0
21/01:00pm 21.5 16.5 12.1 55 5.3 WSW 30 41 16 22 1015.0 1015.0 0.0
21/12:30pm 20.4 15.9 10.2 52 5.5 SW 24 37 13 20 1014.9 1014.9 0.0
21/12:00pm 19.8 13.9 9.1 50 5.6 SW 30 41 16 22 1014.8 1014.8 0.0
21/11:30am 19.5 13.3 9.4 52 5.3 SW 32 43 17 23 1014.8 1014.8 0.0
21/11:00am 19.5 13.8 9.7 53 5.2 SW 30 41 16 22 1014.5 1014.5 0.0
21/10:30am 19.4 13.9 10.7 57 4.7 SW 30 39 16 21 1014.2 1014.2 0.0
21/10:00am 17.5 11.9 10.1 62 3.9 WSW 30 39 16 21 1014.1 1014.1 0.0
21/09:30am 17.7 12.8 10.1 61 4.0 SW 26 35 14 19 1014.0 1014.0 0.0
21/09:00am 17.0 11.1 9.2 60 4.0 WSW 30 39 16 21 1013.6 1013.6 1.4
21/08:30am 16.7 11.8 9.9 64 3.6 WSW 26 39 14 21 1013.4 1013.4 1.4
21/08:00am 15.5 11.6 9.4 67 3.2 W 20 26 11 14 1012.9 1012.9 1.4
21/07:30am 15.1 12.2 9.5 69 2.9 WNW 15 19 8 10 1012.5 1012.5 1.4
21/07:00am 14.1 11.5 9.3 73 2.5 W 13 20 7 11 1011.9 1011.9 1.4
21/06:30am 13.8 10.4 9.3 74 2.3 W 17 22 9 12 1011.4 1011.4 1.4
21/06:00am 14.0 11.0 9.2 73 2.4 W 15 20 8 11 1010.9 1010.9 1.4
21/05:30am 14.2 10.8 9.2 72 2.6 W 17 24 9 13 1010.5 1010.5 1.4
21/05:00am 14.1 10.4 9.3 73 2.5 W 19 28 10 15 1010.1 1010.1 1.4
21/04:30am 13.8 11.3 9.8 77 2.1 W 13 20 7 11 1009.8 1009.8 1.4
21/04:00am 12.5 10.5 8.8 78 1.9 WNW 9 15 5 8 1009.4 1009.4 1.4
21/03:30am 13.9 10.6 9.7 76 2.2 WSW 17 24 9 13 1009.1 1009.1 1.4
21/03:00am 14.1 10.4 9.3 73 2.5 WSW 19 28 10 15 1008.9 1008.9 1.4
21/02:30am 14.2 9.9 9.4 73 2.5 W 22 30 12 16 1008.5 1008.5 1.4
21/02:00am 14.2 10.0 9.6 74 2.4 WSW 22 32 12 17 1008.4 1008.4 1.4
21/01:30am 14.3 11.0 9.7 74 2.4 W 17 22 9 12 1008.3 1008.3 1.4
21/01:00am 14.5 10.9 9.7 73 2.5 W 19 26 10 14 1008.2 1008.2 1.4
21/12:30am 14.6 10.4 9.6 72 2.6 WSW 22 28 12 15 1008.1 1008.1 1.4
21/12:00am 14.5 9.9 9.7 73 2.5 WSW 24 35 13 19 1007.7 1007.7 1.4
 
Date/Time
EDT
Temp
°C
App
Temp
°C
Dew
Point
°C
Rel
Hum
%
Delta-T
°C
Wind Press
QNH
hPa
Press
MSL
hPa
Rain since
9am
mm
Dir  Spd
km/h
Gust
km/h
Spd
kts
Gust
kts
20/11:30pm 14.0 9.8 9.8 76 2.2 W 22 32 12 17 1007.4 1007.4 1.4
20/11:00pm 14.4 9.7 9.4 72 2.6 WSW 24 35 13 19 1007.5 1007.5 1.4
20/10:30pm 15.2 10.7 10.2 72 2.6 WSW 24 33 13 18 1007.4 1007.4 1.4
20/10:00pm 15.1 9.9 10.3 73 2.5 WSW 28 37 15 20 1007.0 1007.0 1.4
20/09:30pm 15.2 9.8 11.0 76 2.2 WSW 30 39 16 21 1006.4 1006.4 1.4
20/09:00pm 15.7 9.8 11.1 74 2.5 WSW 33 44 18 24 1006.0 1006.0 1.4
20/08:30pm 15.8 10.1 11.0 73 2.6 WSW 32 43 17 23 1005.5 1005.5 1.4
20/08:08pm 16.1 9.7 10.8 71 2.8 WSW 35 54 19 29 1004.9 1004.9 1.4
20/08:00pm 16.4 9.7 11.1 71 2.9 WSW 37 50 20 27 1004.6 1004.6 1.4
20/07:37pm 16.6 8.7 11.3 71 2.9 WSW 44 67 24 36 1003.8 1003.8 1.4
20/07:30pm 16.7 8.4 11.4 71 2.9 WSW 46 59 25 32 1003.7 1003.7 1.4
20/07:00pm 17.8 9.5 11.4 66 3.5 SW 46 65 25 35 1003.2 1003.2 1.4
20/06:48pm 18.0 10.2 11.3 65 3.6 WSW 43 61 23 33 1002.9 1002.9 1.4
20/06:30pm 18.4 10.0 11.2 63 3.9 WSW 46 63 25 34 1002.5 1002.5 1.4
20/06:00pm 17.9 9.4 11.9 68 3.3 SW 48 70 26 38 1002.0 1002.0 1.4
20/05:52pm 18.6 10.7 12.6 68 3.4 WSW 46 65 25 35 1001.8 1001.7 1.4
20/05:30pm 18.2 10.1 12.0 67 3.4 WSW 46 61 25 33 1001.2 1001.1 1.4
20/05:05pm 18.3 9.6 12.5 69 3.2 WSW 50 69 27 37 1000.3 1000.2 1.4
20/05:00pm 18.6 9.6 12.8 69 3.3 WSW 52 69 28 37 1000.0 999.9 1.4
20/04:30pm 19.1 11.2 13.9 72 3.0 WSW 48 70 26 38 998.9 998.8 1.4
20/04:22pm 18.8 10.8 13.4 71 3.1 WSW 48 70 26 38 998.7 998.6 1.4
20/04:00pm 18.3 10.8 14.0 76 2.5 WSW 46 61 25 33 998.4 998.3 1.4
20/03:38pm 17.0 12.1 15.2 89 1.0 WSW 35 61 19 33 998.1 998.0 1.4
20/03:30pm 16.7 11.5 15.6 93 0.6 WSW 37 50 20 27 998.0 997.9 1.4
20/03:01pm 16.4 9.6 14.4 88 1.1 WSW 43 61 23 33 998.0 997.9 0.6
20/03:00pm 16.7 10.0 14.5 87 1.3 WSW 43 57 23 31 998.0 997.9 0.6
20/02:30pm 19.1 11.0 13.3 69 3.3 W 48 67 26 36 997.0 996.9 0.4
20/02:00pm 19.1 11.1 13.5 70 3.2 W 48 69 26 37 996.3 996.2 0.4
20/01:32pm 18.5 11.0 14.0 75 2.6 W 46 65 25 35 995.8 995.7 0.4
20/01:30pm 18.5 11.4 14.0 75 2.6 W 44 61 24 33 995.8 995.7 0.4
20/01:00pm 17.7 11.3 14.2 80 2.0 W 41 59 22 32 995.5 995.4 0.4
20/12:30pm 17.3 10.5 14.8 85 1.4 W 44 63 24 34 994.9 994.8 0.4
20/12:00pm 19.1 13.7 15.0 77 2.4 W 37 56 20 30 993.8 993.7 0.4
20/11:30am 19.5 14.4 15.8 79 2.2 W 37 57 20 31 993.1 993.0 0.4
20/11:20am 19.8 15.3 16.4 81 2.0 W 35 61 19 33 992.9 992.8 0.4
20/11:19am 19.8 15.8 16.6 82 1.9 W 33 48 18 26 992.9 992.8 0.4
20/11:00am 18.8 17.4 17.1 90 1.0 W 20 28 11 15 992.8 992.7 0.4
20/10:30am 17.8 18.0 16.7 93 0.7 W 11 17 6 9 992.5 992.4 0.4
20/10:00am 18.0 18.3 16.9 93 0.7 NW 11 15 6 8 992.6 992.5 0.4
20/09:30am 17.7 18.5 16.4 92 0.8 N 7 9 4 5 992.4 992.3 0.0
20/09:00am 17.3 16.9 16.2 93 0.7 NNE 13 17 7 9 991.8 991.7 8.4
20/08:30am 16.7 16.9 15.7 94 0.6 NE 9 17 5 9 991.8 991.7 8.4
20/08:00am 16.4 14.6 15.6 95 0.5 NE 19 24 10 13 991.3 991.2 7.6
20/07:30am 16.3 14.9 15.5 95 0.5 NE 17 26 9 14 991.8 991.7 7.6
20/07:00am 16.3 15.3 15.5 95 0.5 NE 15 19 8 10 993.6 993.5 7.4
20/06:30am 16.4 15.4 15.6 95 0.5 NE 15 19 8 10 994.1 994.0 6.8
20/06:26am 16.5 15.9 15.7 95 0.5 NE 13 19 7 10 994.0 993.9 6.8
20/06:00am 16.9 17.6 16.1 95 0.5 N 7 11 4 6 996.0 995.9 5.0
20/05:30am 16.9 16.8 16.1 95 0.5 WNW 11 13 6 7 997.3 997.2 2.6
20/05:00am 16.9 16.8 16.1 95 0.5 W 11 15 6 8 997.8 997.7 2.0
20/04:30am 16.8 16.7 16.0 95 0.5 W 11 15 6 8 998.0 997.9 1.4
20/04:00am 16.9 16.0 15.9 94 0.6 WNW 15 20 8 11 999.0 998.9 0.8
20/03:30am 17.0 15.2 16.0 94 0.6 WSW 20 28 11 15 999.8 999.7 0.8
20/03:00am 16.6 14.6 15.5 93 0.6 WSW 20 28 11 15 999.7 999.6 0.0
20/02:57am 16.4 15.3 15.3 93 0.6 WSW 15 28 8 15 999.4 999.3 0.0
20/02:30am 15.9 17.0 14.6 92 0.7 NE 2 7 1 4 997.4 997.3 0.0
20/02:00am 15.7 17.0 14.2 91 0.9 CALM 0 0 0 0 998.6 998.5 0.0
20/01:30am 15.5 15.6 13.9 90 0.9 NNW 6 7 3 4 999.7 999.6 0.0
20/01:00am 15.3 15.2 13.3 88 1.1 N 6 7 3 4 1000.0 999.9 0.0
20/12:30am 16.9 17.3 14.7 87 1.3 ENE 6 11 3 6 1000.1 1000.0 0.0
20/12:00am 17.4 17.9 14.9 85 1.5 ENE 6 11 3 6 1000.7 1000.6 0.0
 
Date/Time
EDT
Temp
°C
App
Temp
°C
Dew
Point
°C
Rel
Hum
%
Delta-T
°C
Wind Press
QNH
hPa
Press
MSL
hPa
Rain since
9am
mm
Dir  Spd
km/h
Gust
km/h
Spd
kts
Gust
kts
19/11:30pm 18.2 17.5 15.3 83 1.7 ENE 13 19 7 10 1002.1 1002.1 0.0
19/11:00pm 18.7 17.6 15.4 81 1.9 ENE 15 20 8 11 1003.5 1003.5 0.0
19/10:30pm 18.7 17.2 15.4 81 1.9 ENE 17 26 9 14 1004.1 1004.1 0.0
19/10:00pm 18.7 16.6 15.2 80 2.1 ENE 20 32 11 17 1005.1 1005.1 0.0
19/09:30pm 18.8 16.6 14.9 78 2.3 ENE 20 30 11 16 1006.3 1006.3 0.0
19/09:00pm 18.9 16.2 14.6 76 2.5 ENE 22 35 12 19 1006.9 1006.9 0.0
19/08:30pm 18.9 16.8 14.6 76 2.5 E 19 26 10 14 1007.3 1007.3 0.0
19/08:00pm 19.1 16.7 14.4 74 2.7 E 20 28 11 15 1007.4 1007.4 0.0
19/07:30pm 19.7 16.8 14.1 70 3.2 ENE 22 33 12 18 1007.5 1007.5 0.0
19/07:00pm 19.8 16.7 13.3 66 3.7 E 22 35 12 19 1007.6 1007.6 0.0
19/06:30pm 19.8 15.9 13.3 66 3.7 E 26 39 14 21 1008.0 1008.0 0.0
19/06:00pm 20.2 16.3 13.2 64 4.0 E 26 41 14 22 1008.4 1008.4 0.0
19/05:30pm 20.2 15.7 12.7 62 4.2 E 28 39 15 21 1008.8 1008.8 0.0
19/05:02pm 20.5 16.2 13.2 63 4.2 E 28 46 15 25 1009.1 1009.1 0.0
19/05:00pm 20.2 15.4 12.9 63 4.1 E 30 46 16 25 1009.1 1009.1 0.0
19/04:30pm 20.5 15.8 12.0 58 4.7 ENE 28 41 15 22 1009.5 1009.5 0.0
19/04:00pm 21.1 16.3 11.7 55 5.2 ENE 28 44 15 24 1010.2 1010.2 0.0
19/03:37pm 21.6 16.7 12.5 56 5.2 E 30 48 16 26 1010.6 1010.6 0.0
19/03:30pm 21.2 15.8 12.1 56 5.1 E 32 41 17 22 1010.7 1010.7 0.0
19/03:00pm 19.9 14.2 11.1 57 4.8 E 32 44 17 24 1011.4 1011.4 0.0
19/02:41pm 21.7 16.9 11.7 53 5.6 ENE 28 48 15 26 1011.4 1011.4 0.0
19/02:30pm 21.5 16.3 11.5 53 5.6 ENE 30 46 16 25 1011.6 1011.6 0.0
19/02:19pm 20.9 15.4 10.7 52 5.6 E 30 48 16 26 1011.6 1011.6 0.0
19/02:00pm 21.3 15.9 9.5 47 6.3 E 28 43 15 23 1011.9 1011.9 0.0
19/01:30pm 21.0 15.4 8.9 46 6.4 E 28 44 15 24 1012.2 1012.2 0.0
19/01:00pm 20.5 15.7 8.8 47 6.2 E 24 37 13 20 1012.6 1012.6 0.0
19/12:30pm 20.9 16.6 9.2 47 6.2 ENE 22 39 12 21 1013.0 1013.0 0.0
19/12:00pm 20.5 16.3 9.7 50 5.8 E 22 35 12 19 1013.3 1013.3 0.0
19/11:30am 20.2 15.3 8.5 47 6.1 E 24 37 13 20 1013.5 1013.5 0.0
19/11:00am 20.4 16.0 7.4 43 6.7 ENE 20 32 11 17 1013.8 1013.8 0.0
19/10:30am 19.1 15.6 7.2 46 6.0 ENE 15 26 8 14 1014.1 1014.1 0.0
19/10:00am 18.6 14.5 8.0 50 5.4 ENE 19 26 10 14 1014.5 1014.5 0.0
19/09:30am 18.6 14.8 9.1 54 5.0 NE 19 24 10 13 1014.8 1014.8 0.0
19/09:00am 17.1 13.7 9.0 59 4.2 ENE 17 24 9 13 1015.1 1015.1 0.0
19/08:30am 15.8 14.2 10.1 69 3.0 NE 9 17 5 9 1015.2 1015.2 0.0
19/08:00am 11.9 12.0 10.3 90 0.8 CALM 0 0 0 0 1015.2 1015.2 0.0
19/07:30am 9.6 9.3 8.5 93 0.5 CALM 0 0 0 0 1015.2 1015.2 0.0
19/07:00am 7.7 7.0 6.8 94 0.4 CALM 0 0 0 0 1015.2 1015.2 0.0

Other Formats:

Comma delimited format used in spreadsheet applications
http://www.bom.gov.au/fwo/IDV60801/IDV60801.95890.axf

JavaScript Object Notation format (JSON) in row-major order
http://www.bom.gov.au/fwo/IDV60801/IDV60801.95890.json